Albatros — C6CN4 — position and weather

sailwx.info

Track history (hours):
 
Tides and Currents Weather Stations Pressure Air Temp Water Temp Dewpoint Dewpoint Depression Visibility Wind Speed Wind Dir Waves Ship Positions

Albatros

Last reported at 2019-Jul-19 18:30 UTC. Time now 2019-Jul-19 18:50 UTC.
Position N 68°17' E 015°47'.

Length 205.5 m; beam 25.2 m; draft 7.6 m.

Type: Passenger vessel. MMSI: 308784000.

Date/timePositionNaut miles runAvg speedWind from/ knotsBaromVisibWave heightAir tempDewpointWater temp
2019-Jul-19 18:30N 68°17' E 015°47'816.5
2019-Jul-19 18:00N 68°24' E 016°01'715.0
2019-Jul-19 17:30N 68°31' E 016°09'713.0
2019-Jul-19 17:00N 68°33' E 016°25'510.7
2019-Jul-19 16:30N 68°38' E 016°35'815.4
2019-Jul-19 16:00N 68°44' E 016°44'816.8
2019-Jul-19 15:30N 68°52' E 016°57'816.7
2019-Jul-19 15:00N 68°58' E 017°10'816.9
2019-Jul-19 14:30N 69°05' E 017°24'816.8
2019-Jul-19 14:00N 69°08' E 017°45'713.1
2019-Jul-19 13:30N 69°13' E 017°59'612.2
2019-Jul-19 13:00N 69°19' E 017°58'714.5
2019-Jul-19 12:30N 69°25' E 018°07'714.6
2019-Jul-19 12:00N 69°31' E 018°21'815.6
2019-Jul-19 11:30N 69°33' E 018°42'714.5
2019-Jul-19 11:00N 69°38' E 018°57'1 1.1
2019-Jul-19 10:26N 69°39' E 018°58'0 0.0
2019-Jul-19 09:56N 69°39' E 018°58'0 0.0
2019-Jul-19 09:26N 69°39' E 018°58'0 0.0
2019-Jul-19 08:56N 69°39' E 018°58'0 0.0
2019-Jul-19 08:26N 69°39' E 018°58'0 0.0
2019-Jul-19 07:56N 69°39' E 018°58'0 0.0
2019-Jul-19 07:26N 69°39' E 018°58'0 0.0
2019-Jul-19 06:56N 69°39' E 018°58'0 0.0
2019-Jul-19 06:26N 69°39' E 018°58'0 0.0
2019-Jul-19 05:56N 69°39' E 018°58'0 0.0
2019-Jul-19 05:26N 69°39' E 018°58'0 0.0
2019-Jul-19 04:56N 69°39' E 018°58'0 0.1
2019-Jul-19 04:30N 69°39' E 018°58'2 3.9
2019-Jul-19 04:00N 69°37' E 018°54'5 9.3
2019-Jul-19 03:30N 69°42' E 018°56'713.8
2019-Jul-19 03:00N 69°47' E 019°11'714.6
2019-Jul-19 02:30N 69°49' E 019°31'714.2
2019-Jul-19 02:00N 69°52' E 019°49'714.2
2019-Jul-19 01:30N 69°57' E 020°05'713.6
2019-Jul-19 01:00N 70°00' E 020°22'714.2
2019-Jul-19 00:30N 70°02' E 020°42'713.2
2019-Jul-19 00:00N 70°06' E 020°58'713.8
2019-Jul-18 23:30N 70°12' E 021°06'713.6
2019-Jul-18 23:00N 70°17' E 021°21'713.9
2019-Jul-18 22:30N 70°22' E 021°34'713.8
2019-Jul-18 22:00N 70°26' E 021°52'714.2
2019-Jul-18 21:30N 70°27' E 022°13'816.8
2019-Jul-18 21:00N 70°29' E 022°37'916.8
2019-Jul-18 20:30N 70°32' E 023°01'816.8
2019-Jul-18 20:00N 70°38' E 023°18'917.1
2019-Jul-18 19:30N 70°44' E 023°35'816.6
2019-Jul-18 19:00N 70°50' E 023°53'816.6
2019-Jul-18 18:30N 70°55' E 024°12'916.5
2019-Jul-18 17:58N 71°02' E 024°31'816.4
2019-Jul-18 17:30N 70°60' E 024°54'816.7
2019-Jul-18 17:00N 70°59' E 025°20'815.1
2019-Jul-18 16:28N 70°56' E 025°41'613.7
2019-Jul-18 16:00N 70°59' E 025°57'0 0.3
2019-Jul-18 15:29N 70°59' E 025°58'0 0.0
2019-Jul-18 14:59N 70°59' E 025°58'0 0.0
2019-Jul-18 14:29N 70°59' E 025°58'0 0.0
2019-Jul-18 13:59N 70°59' E 025°58'0 0.0
2019-Jul-18 13:29N 70°59' E 025°58'0 0.0
2019-Jul-18 12:59N 70°59' E 025°58'0 0.0
2019-Jul-18 12:29N 70°59' E 025°58'0 0.0
2019-Jul-18 11:59N 70°59' E 025°58'0 0.0
2019-Jul-18 11:29N 70°59' E 025°58'0 0.0
2019-Jul-18 10:59N 70°59' E 025°58'0 0.0
2019-Jul-18 10:29N 70°59' E 025°58'0 0.0
2019-Jul-18 09:59N 70°59' E 025°58'0 0.0
2019-Jul-18 09:29N 70°59' E 025°58'0 0.0
2019-Jul-18 08:59N 70°59' E 025°58'0 0.0
2019-Jul-18 08:29N 70°59' E 025°58'0 0.0
2019-Jul-18 07:59N 70°59' E 025°58'0 0.0
2019-Jul-18 07:30N 70°59' E 025°58'2 3.9
2019-Jul-18 07:00N 70°58' E 026°02'714.9
2019-Jul-18 06:30N 71°04' E 026°16'713.0
2019-Jul-18 06:00N 71°09' E 026°03'5 9.6
2019-Jul-18 05:30N 71°10' E 025°49'713.2
2019-Jul-18 05:00N 71°15' E 025°36'713.9
2019-Jul-18 04:30N 71°21' E 025°23'714.1
2019-Jul-18 04:00N 71°27' E 025°10'713.9
2019-Jul-18 03:30N 71°32' E 024°57'713.7
2019-Jul-18 03:00N 71°38' E 024°45'714.2
2019-Jul-18 02:30N 71°44' E 024°32'714.0
2019-Jul-18 02:01N 71°49' E 024°19'714.0
2019-Jul-18 01:30N 71°55' E 024°06'714.0
2019-Jul-18 01:00N 72°01' E 023°53'713.9
2019-Jul-18 00:29N 72°07' E 023°39'3015.2
2019-Jul-17 22:30N 72°31' E 022°41'9816.4
2019-Jul-17 16:31N 73°51' E 019°23'117.2
2019-Jul-17 16:29N 73°51' E 019°22'817.0
2019-Jul-17 16:00N 73°58' E 019°05'917.0
2019-Jul-17 15:29N 74°05' E 018°47'816.8
2019-Jul-17 15:01N 74°12' E 018°30'916.8
2019-Jul-17 14:30N 74°19' E 018°11'916.8
2019-Jul-17 13:59N 74°26' E 017°56'816.5
2019-Jul-17 13:30N 74°34' E 017°45'816.0
2019-Jul-17 13:00N 74°41' E 017°33'816.5
2019-Jul-17 12:30N 74°49' E 017°20'816.4
2019-Jul-17 12:00N 74°56' E 017°08'9515.2
2019-Jul-17 05:42N 76°24' E 014°36'313.6
2019-Jul-17 05:29N 76°26' E 014°31'713.7
2019-Jul-17 05:00N 76°33' E 014°20'714.0
2019-Jul-17 04:30N 76°39' E 014°07'714.0
2019-Jul-17 04:00N 76°45' E 013°55'713.8
2019-Jul-17 03:30N 76°52' E 013°44'714.0
2019-Jul-17 03:00N 76°58' E 013°31'713.9
2019-Jul-17 02:30N 77°05' E 013°19'713.7
2019-Jul-17 02:00N 77°11' E 013°07'713.5
2019-Jul-17 01:30N 77°18' E 012°60'713.3
2019-Jul-17 01:00N 77°24' E 012°55'613.2
2019-Jul-17 00:30N 77°30' E 012°50'713.2
2019-Jul-17 00:01N 77°37' E 012°45'713.1
2019-Jul-16 23:30N 77°44' E 012°39'613.2
2019-Jul-16 23:00N 77°50' E 012°34'612.4
2019-Jul-16 22:30N 77°56' E 012°41'713.2
2019-Jul-16 22:00N 78°02' E 012°54'611.9
2019-Jul-16 21:31N 78°06' E 013°15'713.5
2019-Jul-16 21:00N 78°08' E 013°47'713.5
2019-Jul-16 20:30N 78°09' E 014°19'713.6
2019-Jul-16 19:59N 78°14' E 014°46'612.1
2019-Jul-16 19:30N 78°17' E 015°11'611.3
2019-Jul-16 19:00N 78°20' E 015°35'714.9
2019-Jul-16 18:30N 78°22' E 016°09'816.5
2019-Jul-16 18:00N 78°22' E 016°50'3 5.1
2019-Jul-16 17:30N 78°24' E 017°01'714.1
2019-Jul-16 17:01N 78°22' E 016°27'814.6
2019-Jul-16 16:29N 78°22' E 015°49'613.1
2019-Jul-16 15:59N 78°17' E 015°30'3 5.7
2019-Jul-16 15:28N 78°14' E 015°36'0 0.0
2019-Jul-16 14:58N 78°14' E 015°36'0 0.0
2019-Jul-16 14:28N 78°14' E 015°36'0 0.0
2019-Jul-16 13:58N 78°14' E 015°36'0 0.0
2019-Jul-16 13:28N 78°14' E 015°36'0 0.0
2019-Jul-16 12:58N 78°14' E 015°36'0 0.0
2019-Jul-16 12:28N 78°14' E 015°36'0 0.0
2019-Jul-16 11:58N 78°14' E 015°36'0 0.0
2019-Jul-16 11:28N 78°14' E 015°36'0 0.6
2019-Jul-16 10:58N 78°14' E 015°36'1 2.7
2019-Jul-16 10:29N 78°15' E 015°34'511.0
2019-Jul-16 09:59N 78°21' E 015°35'611.9
2019-Jul-16 09:30N 78°26' E 015°51'611.8
2019-Jul-16 09:00N 78°30' E 016°09'611.8
2019-Jul-16 08:30N 78°35' E 016°29'611.1
2019-Jul-16 08:00N 78°39' E 016°46'1 1.4
2019-Jul-16 07:28N 78°39' E 016°49'1 1.6
2019-Jul-16 06:57N 78°39' E 016°45'4 7.9
2019-Jul-16 06:24N 78°37' E 016°26'616.0
2019-Jul-16 06:00N 78°31' E 016°13'918.8
2019-Jul-16 05:30N 78°25' E 015°39'1019.0
2019-Jul-16 05:00N 78°19' E 015°00'919.0
2019-Jul-16 04:30N 78°14' E 014°23'713.5
2019-Jul-16 04:00N 78°10' E 013°55'612.8
2019-Jul-16 03:30N 78°07' E 013°27'713.7
2019-Jul-16 03:00N 78°04' E 012°58'713.4
2019-Jul-16 02:30N 77°59' E 012°37'713.8
2019-Jul-16 02:00N 77°54' E 012°17'713.7
2019-Jul-16 01:30N 77°48' E 011°56'713.7
2019-Jul-16 01:00N 77°43' E 011°36'713.5
2019-Jul-16 00:30N 77°38' E 011°17'713.4
2019-Jul-16 00:00N 77°33' E 010°57'713.9
2019-Jul-15 23:30N 77°27' E 010°36'713.9
2019-Jul-15 23:00N 77°22' E 010°17'  
2019-Jul-09 21:01N 61°58' W 007°08'115.7
2019-Jul-09 20:59N 61°57' W 007°07'816.8
2019-Jul-09 20:30N 61°55' W 006°50'  
Track history (hours):
 
Tides and Currents Weather Stations Pressure Air Temp Water Temp Dewpoint Dewpoint Depression Visibility Wind Speed Wind Dir Waves Ship Positions

Albatros

Last reported at 2019-Jul-19 18:30 UTC. Time now 2019-Jul-19 18:50 UTC.
Position N 68°17' E 015°47'.

Length 205.5 m; beam 25.2 m; draft 7.6 m.

Type: Passenger vessel. MMSI: 308784000.

Date/timePositionNaut miles runAvg speedWind from/ knotsBaromVisibWave heightAir tempDewpointWater temp
2019-Jul-19 18:30N 68°17' E 015°47'816.5
2019-Jul-19 18:00N 68°24' E 016°01'715.0
2019-Jul-19 17:30N 68°31' E 016°09'713.0
2019-Jul-19 17:00N 68°33' E 016°25'510.7
2019-Jul-19 16:30N 68°38' E 016°35'815.4
2019-Jul-19 16:00N 68°44' E 016°44'816.8
2019-Jul-19 15:30N 68°52' E 016°57'816.7
2019-Jul-19 15:00N 68°58' E 017°10'816.9
2019-Jul-19 14:30N 69°05' E 017°24'816.8
2019-Jul-19 14:00N 69°08' E 017°45'713.1
2019-Jul-19 13:30N 69°13' E 017°59'612.2
2019-Jul-19 13:00N 69°19' E 017°58'714.5
2019-Jul-19 12:30N 69°25' E 018°07'714.6
2019-Jul-19 12:00N 69°31' E 018°21'815.6
2019-Jul-19 11:30N 69°33' E 018°42'714.5
2019-Jul-19 11:00N 69°38' E 018°57'1 1.1
2019-Jul-19 10:26N 69°39' E 018°58'0 0.0
2019-Jul-19 09:56N 69°39' E 018°58'0 0.0
2019-Jul-19 09:26N 69°39' E 018°58'0 0.0
2019-Jul-19 08:56N 69°39' E 018°58'0 0.0
2019-Jul-19 08:26N 69°39' E 018°58'0 0.0
2019-Jul-19 07:56N 69°39' E 018°58'0 0.0
2019-Jul-19 07:26N 69°39' E 018°58'0 0.0
2019-Jul-19 06:56N 69°39' E 018°58'0 0.0
2019-Jul-19 06:26N 69°39' E 018°58'0 0.0
2019-Jul-19 05:56N 69°39' E 018°58'0 0.0
2019-Jul-19 05:26N 69°39' E 018°58'0 0.0
2019-Jul-19 04:56N 69°39' E 018°58'0 0.1
2019-Jul-19 04:30N 69°39' E 018°58'2 3.9
2019-Jul-19 04:00N 69°37' E 018°54'5 9.3
2019-Jul-19 03:30N 69°42' E 018°56'713.8
2019-Jul-19 03:00N 69°47' E 019°11'714.6
2019-Jul-19 02:30N 69°49' E 019°31'714.2
2019-Jul-19 02:00N 69°52' E 019°49'714.2
2019-Jul-19 01:30N 69°57' E 020°05'713.6
2019-Jul-19 01:00N 70°00' E 020°22'714.2
2019-Jul-19 00:30N 70°02' E 020°42'713.2
2019-Jul-19 00:00N 70°06' E 020°58'713.8
2019-Jul-18 23:30N 70°12' E 021°06'713.6
2019-Jul-18 23:00N 70°17' E 021°21'713.9
2019-Jul-18 22:30N 70°22' E 021°34'713.8
2019-Jul-18 22:00N 70°26' E 021°52'714.2
2019-Jul-18 21:30N 70°27' E 022°13'816.8
2019-Jul-18 21:00N 70°29' E 022°37'916.8
2019-Jul-18 20:30N 70°32' E 023°01'816.8
2019-Jul-18 20:00N 70°38' E 023°18'917.1
2019-Jul-18 19:30N 70°44' E 023°35'816.6
2019-Jul-18 19:00N 70°50' E 023°53'816.6
2019-Jul-18 18:30N 70°55' E 024°12'916.5
2019-Jul-18 17:58N 71°02' E 024°31'816.4
2019-Jul-18 17:30N 70°60' E 024°54'816.7
2019-Jul-18 17:00N 70°59' E 025°20'815.1
2019-Jul-18 16:28N 70°56' E 025°41'613.7
2019-Jul-18 16:00N 70°59' E 025°57'0 0.3
2019-Jul-18 15:29N 70°59' E 025°58'0 0.0
2019-Jul-18 14:59N 70°59' E 025°58'0 0.0
2019-Jul-18 14:29N 70°59' E 025°58'0 0.0
2019-Jul-18 13:59N 70°59' E 025°58'0 0.0
2019-Jul-18 13:29N 70°59' E 025°58'0 0.0
2019-Jul-18 12:59N 70°59' E 025°58'0 0.0
2019-Jul-18 12:29N 70°59' E 025°58'0 0.0
2019-Jul-18 11:59N 70°59' E 025°58'0 0.0
2019-Jul-18 11:29N 70°59' E 025°58'0 0.0
2019-Jul-18 10:59N 70°59' E 025°58'0 0.0
2019-Jul-18 10:29N 70°59' E 025°58'0 0.0
2019-Jul-18 09:59N 70°59' E 025°58'0 0.0
2019-Jul-18 09:29N 70°59' E 025°58'0 0.0
2019-Jul-18 08:59N 70°59' E 025°58'0 0.0
2019-Jul-18 08:29N 70°59' E 025°58'0 0.0
2019-Jul-18 07:59N 70°59' E 025°58'0 0.0
2019-Jul-18 07:30N 70°59' E 025°58'2 3.9
2019-Jul-18 07:00N 70°58' E 026°02'714.9
2019-Jul-18 06:30N 71°04' E 026°16'713.0
2019-Jul-18 06:00N 71°09' E 026°03'5 9.6
2019-Jul-18 05:30N 71°10' E 025°49'713.2
2019-Jul-18 05:00N 71°15' E 025°36'713.9
2019-Jul-18 04:30N 71°21' E 025°23'714.1
2019-Jul-18 04:00N 71°27' E 025°10'713.9
2019-Jul-18 03:30N 71°32' E 024°57'713.7
2019-Jul-18 03:00N 71°38' E 024°45'714.2
2019-Jul-18 02:30N 71°44' E 024°32'714.0
2019-Jul-18 02:01N 71°49' E 024°19'714.0
2019-Jul-18 01:30N 71°55' E 024°06'714.0
2019-Jul-18 01:00N 72°01' E 023°53'713.9
2019-Jul-18 00:29N 72°07' E 023°39'3015.2
2019-Jul-17 22:30N 72°31' E 022°41'9816.4
2019-Jul-17 16:31N 73°51' E 019°23'117.2
2019-Jul-17 16:29N 73°51' E 019°22'817.0
2019-Jul-17 16:00N 73°58' E 019°05'917.0
2019-Jul-17 15:29N 74°05' E 018°47'816.8
2019-Jul-17 15:01N 74°12' E 018°30'916.8
2019-Jul-17 14:30N 74°19' E 018°11'916.8
2019-Jul-17 13:59N 74°26' E 017°56'816.5
2019-Jul-17 13:30N 74°34' E 017°45'816.0
2019-Jul-17 13:00N 74°41' E 017°33'816.5
2019-Jul-17 12:30N 74°49' E 017°20'816.4
2019-Jul-17 12:00N 74°56' E 017°08'9515.2
2019-Jul-17 05:42N 76°24' E 014°36'313.6
2019-Jul-17 05:29N 76°26' E 014°31'713.7
2019-Jul-17 05:00N 76°33' E 014°20'714.0
2019-Jul-17 04:30N 76°39' E 014°07'714.0
2019-Jul-17 04:00N 76°45' E 013°55'713.8
2019-Jul-17 03:30N 76°52' E 013°44'714.0
2019-Jul-17 03:00N 76°58' E 013°31'713.9
2019-Jul-17 02:30N 77°05' E 013°19'713.7
2019-Jul-17 02:00N 77°11' E 013°07'713.5
2019-Jul-17 01:30N 77°18' E 012°60'713.3
2019-Jul-17 01:00N 77°24' E 012°55'613.2
2019-Jul-17 00:30N 77°30' E 012°50'713.2
2019-Jul-17 00:01N 77°37' E 012°45'713.1
2019-Jul-16 23:30N 77°44' E 012°39'613.2
2019-Jul-16 23:00N 77°50' E 012°34'612.4
2019-Jul-16 22:30N 77°56' E 012°41'713.2
2019-Jul-16 22:00N 78°02' E 012°54'611.9
2019-Jul-16 21:31N 78°06' E 013°15'713.5
2019-Jul-16 21:00N 78°08' E 013°47'713.5
2019-Jul-16 20:30N 78°09' E 014°19'713.6
2019-Jul-16 19:59N 78°14' E 014°46'612.1
2019-Jul-16 19:30N 78°17' E 015°11'611.3
2019-Jul-16 19:00N 78°20' E 015°35'714.9
2019-Jul-16 18:30N 78°22' E 016°09'816.5
2019-Jul-16 18:00N 78°22' E 016°50'3 5.1
2019-Jul-16 17:30N 78°24' E 017°01'714.1
2019-Jul-16 17:01N 78°22' E 016°27'814.6
2019-Jul-16 16:29N 78°22' E 015°49'613.1
2019-Jul-16 15:59N 78°17' E 015°30'3 5.7
2019-Jul-16 15:28N 78°14' E 015°36'0 0.0
2019-Jul-16 14:58N 78°14' E 015°36'0 0.0
2019-Jul-16 14:28N 78°14' E 015°36'0 0.0
2019-Jul-16 13:58N 78°14' E 015°36'0 0.0
2019-Jul-16 13:28N 78°14' E 015°36'0 0.0
2019-Jul-16 12:58N 78°14' E 015°36'0 0.0
2019-Jul-16 12:28N 78°14' E 015°36'0 0.0
2019-Jul-16 11:58N 78°14' E 015°36'0 0.0
2019-Jul-16 11:28N 78°14' E 015°36'0 0.6
2019-Jul-16 10:58N 78°14' E 015°36'1 2.7
2019-Jul-16 10:29N 78°15' E 015°34'511.0
2019-Jul-16 09:59N 78°21' E 015°35'611.9
2019-Jul-16 09:30N 78°26' E 015°51'611.8
2019-Jul-16 09:00N 78°30' E 016°09'611.8
2019-Jul-16 08:30N 78°35' E 016°29'611.1
2019-Jul-16 08:00N 78°39' E 016°46'1 1.4
2019-Jul-16 07:28N 78°39' E 016°49'1 1.6
2019-Jul-16 06:57N 78°39' E 016°45'4 7.9
2019-Jul-16 06:24N 78°37' E 016°26'616.0
2019-Jul-16 06:00N 78°31' E 016°13'918.8
2019-Jul-16 05:30N 78°25' E 015°39'1019.0
2019-Jul-16 05:00N 78°19' E 015°00'919.0
2019-Jul-16 04:30N 78°14' E 014°23'713.5
2019-Jul-16 04:00N 78°10' E 013°55'612.8
2019-Jul-16 03:30N 78°07' E 013°27'713.7
2019-Jul-16 03:00N 78°04' E 012°58'713.4
2019-Jul-16 02:30N 77°59' E 012°37'713.8
2019-Jul-16 02:00N 77°54' E 012°17'713.7
2019-Jul-16 01:30N 77°48' E 011°56'713.7
2019-Jul-16 01:00N 77°43' E 011°36'713.5
2019-Jul-16 00:30N 77°38' E 011°17'713.4
2019-Jul-16 00:00N 77°33' E 010°57'713.9
2019-Jul-15 23:30N 77°27' E 010°36'713.9
2019-Jul-15 23:00N 77°22' E 010°17'  
2019-Jul-09 21:01N 61°58' W 007°08'115.7
2019-Jul-09 20:59N 61°57' W 007°07'816.8
2019-Jul-09 20:30N 61°55' W 006°50'  

Dump ship's entire track history